createdAt,value
2019-05-16T00:00:32.407Z,17.40
2019-05-16T00:03:01.362Z,17.03
2019-05-16T00:05:29.913Z,17.87
2019-05-16T00:07:59.149Z,18.23
2019-05-16T00:10:28.394Z,19.00
2019-05-16T00:12:59.571Z,18.43
2019-05-16T00:15:28.665Z,17.60
2019-05-16T00:17:58.395Z,16.73
2019-05-16T00:20:28.476Z,16.13
2019-05-16T00:22:58.921Z,15.63
2019-05-16T00:25:28.555Z,15.27
2019-05-16T00:27:58.665Z,15.63
2019-05-16T00:30:29.063Z,14.83
2019-05-16T00:32:58.828Z,13.70
2019-05-16T00:35:28.573Z,13.90
2019-05-16T00:37:58.929Z,14.80
2019-05-16T00:40:28.155Z,14.33
2019-05-16T00:42:58.858Z,14.10
2019-05-16T00:45:29.586Z,14.37
2019-05-16T00:47:58.515Z,13.20
2019-05-16T00:50:28.851Z,14.23
2019-05-16T00:52:58.928Z,13.77
2019-05-16T00:55:28.659Z,14.73
2019-05-16T00:57:58.498Z,14.80
2019-05-16T01:00:59.332Z,15.60
2019-05-16T01:03:29.067Z,15.27
2019-05-16T01:05:58.303Z,15.07
2019-05-16T01:08:28.144Z,14.50
2019-05-16T01:10:58.680Z,14.87
2019-05-16T01:13:27.828Z,15.90
2019-05-16T01:15:57.919Z,14.00
2019-05-16T01:18:28.691Z,14.20
2019-05-16T01:20:58.587Z,13.87
2019-05-16T01:23:28.275Z,12.80
2019-05-16T01:25:58.814Z,12.00
2019-05-16T01:28:28.395Z,13.73
2019-05-16T01:30:58.224Z,12.20
2019-05-16T01:33:28.125Z,12.10
2019-05-16T01:35:58.455Z,11.87
2019-05-16T01:38:28.511Z,12.07
2019-05-16T01:40:58.305Z,11.97
2019-05-16T01:43:28.437Z,11.77
2019-05-16T01:45:57.816Z,13.33
2019-05-16T01:49:28.926Z,14.93
2019-05-16T01:52:02.703Z,14.00
2019-05-16T01:54:33.336Z,13.80
2019-05-16T01:57:02.102Z,13.67
2019-05-16T01:59:30.785Z,13.17
2019-05-16T02:02:00.920Z,13.70
2019-05-16T02:04:29.846Z,15.47
2019-05-16T02:06:58.628Z,14.43
2019-05-16T02:09:28.070Z,13.87
2019-05-16T02:11:58.939Z,14.70
2019-05-16T02:14:28.293Z,13.77
2019-05-16T02:16:58.201Z,13.47
2019-05-16T02:19:28.050Z,13.30
2019-05-16T02:21:59.475Z,12.77
2019-05-16T02:24:28.444Z,11.37
2019-05-16T02:26:58.923Z,12.83
2019-05-16T02:29:29.718Z,12.70
2019-05-16T02:32:02.093Z,12.43
2019-05-16T02:34:31.454Z,13.03
2019-05-16T02:37:18.347Z,11.80
2019-05-16T02:39:30.765Z,12.23
2019-05-16T02:42:01.025Z,13.60
2019-05-16T02:44:31.979Z,12.77
2019-05-16T02:47:01.567Z,11.37
2019-05-16T02:49:34.099Z,12.25
2019-05-16T02:52:01.579Z,12.70
2019-05-16T02:54:31.589Z,11.47
2019-05-16T02:57:01.480Z,12.20
2019-05-16T02:59:30.807Z,13.20
2019-05-16T03:02:00.853Z,13.30
2019-05-16T03:04:30.635Z,14.43
2019-05-16T03:07:00.787Z,15.00
2019-05-16T03:09:31.370Z,16.03
2019-05-16T03:12:01.868Z,14.33
2019-05-16T03:14:31.779Z,14.07
2019-05-16T03:17:02.884Z,14.33
2019-05-16T03:19:35.464Z,13.73
2019-05-16T03:22:05.442Z,14.30
2019-05-16T03:24:34.550Z,13.40
2019-05-16T03:27:03.318Z,13.60
2019-05-16T03:29:32.136Z,12.93
2019-05-16T03:32:03.189Z,14.13
2019-05-16T03:34:34.296Z,17.93
2019-05-16T03:37:04.447Z,13.87
2019-05-16T03:39:33.006Z,15.70
2019-05-16T03:42:01.677Z,17.37
2019-05-16T03:44:31.905Z,18.07
2019-05-16T03:47:01.157Z,17.10
2019-05-16T03:49:31.277Z,17.87
2019-05-16T03:52:01.446Z,16.90
2019-05-16T03:54:31.473Z,21.00
2019-05-16T03:57:00.593Z,17.83
2019-05-16T03:59:31.537Z,16.50
2019-05-16T04:02:01.612Z,16.90
2019-05-16T04:04:30.875Z,16.53
2019-05-16T04:07:01.366Z,17.33
2019-05-16T04:09:31.567Z,17.27
2019-05-16T04:12:01.769Z,18.57
2019-05-16T04:14:31.052Z,16.17
2019-05-16T04:17:01.587Z,17.93
2019-05-16T04:19:31.406Z,17.87
2019-05-16T04:22:01.332Z,17.27
2019-05-16T04:24:31.575Z,17.63
2019-05-16T04:27:01.114Z,19.23
2019-05-16T04:29:31.647Z,17.80
2019-05-16T04:32:01.377Z,18.50
2019-05-16T04:34:31.109Z,17.83
2019-05-16T04:37:01.199Z,19.90
2019-05-16T04:39:31.950Z,19.40
2019-05-16T04:42:01.543Z,20.83
2019-05-16T04:44:31.216Z,19.20
2019-05-16T04:47:01.480Z,19.13
2019-05-16T04:49:31.970Z,17.00
2019-05-16T04:52:00.812Z,15.17
2019-05-16T04:54:30.735Z,14.30
2019-05-16T04:57:01.558Z,14.43
2019-05-16T04:59:31.216Z,12.93
2019-05-16T05:02:02.015Z,12.97
2019-05-16T05:04:30.914Z,11.43
2019-05-16T05:07:00.550Z,12.07
2019-05-16T05:09:31.558Z,12.33
2019-05-16T05:12:04.051Z,12.57
2019-05-16T05:14:30.823Z,11.07
2019-05-16T05:17:01.433Z,15.50
2019-05-16T05:19:30.673Z,13.33
2019-05-16T05:22:01.319Z,14.30
2019-05-16T05:24:30.298Z,13.33
2019-05-16T05:26:59.831Z,16.10
2019-05-16T05:29:30.566Z,12.37
2019-05-16T05:32:04.440Z,13.20
2019-05-16T05:34:30.560Z,12.27
2019-05-16T05:37:00.305Z,13.87
2019-05-16T05:39:30.313Z,15.03
2019-05-16T05:42:00.080Z,17.73
2019-05-16T05:44:30.675Z,15.93
2019-05-16T05:47:00.625Z,15.10
2019-05-16T05:49:30.230Z,21.83
2019-05-16T05:52:00.851Z,15.03
2019-05-16T05:54:30.848Z,15.20
2019-05-16T05:57:00.724Z,15.33
2019-05-16T05:59:30.593Z,15.67
2019-05-16T06:02:00.894Z,18.37
2019-05-16T06:04:30.503Z,15.07
2019-05-16T06:07:01.131Z,14.33
2019-05-16T06:09:33.093Z,18.00
2019-05-16T06:12:01.176Z,16.77
2019-05-16T06:14:30.676Z,13.07
2019-05-16T06:17:00.369Z,15.37
2019-05-16T06:19:29.796Z,14.07
2019-05-16T06:22:00.939Z,12.23
2019-05-16T06:24:30.545Z,11.87
2019-05-16T06:27:00.925Z,11.90
2019-05-16T06:29:31.022Z,10.53
2019-05-16T06:32:00.241Z,11.60
2019-05-16T06:34:30.171Z,11.63
2019-05-16T06:37:00.468Z,14.00
2019-05-16T06:39:41.216Z,12.63
2019-05-16T06:42:01.129Z,10.30
2019-05-16T06:44:30.859Z,13.33
2019-05-16T06:47:16.071Z,9.33
2019-05-16T06:49:30.476Z,8.90
2019-05-16T06:51:59.701Z,10.63
2019-05-16T06:54:29.873Z,7.90
2019-05-16T06:57:00.173Z,10.63
2019-05-16T06:59:29.763Z,8.50
2019-05-16T07:02:00.410Z,7.00
2019-05-16T07:04:30.489Z,5.27
2019-05-16T07:07:02.773Z,4.20
2019-05-16T07:09:30.186Z,3.50
2019-05-16T07:11:59.888Z,4.50
2019-05-16T07:14:31.335Z,5.30
2019-05-16T07:17:00.358Z,5.70
2019-05-16T07:19:30.127Z,5.43
2019-05-16T07:21:59.782Z,6.33
2019-05-16T07:24:30.545Z,5.47
2019-05-16T07:27:00.300Z,5.97
2019-05-16T07:29:30.844Z,8.20
2019-05-16T07:32:00.468Z,5.07
2019-05-16T07:34:31.153Z,4.43
2019-05-16T07:37:00.810Z,4.43
2019-05-16T07:39:30.693Z,3.90
2019-05-16T07:42:00.031Z,4.73
2019-05-16T07:44:30.916Z,4.83
2019-05-16T07:47:01.022Z,5.03
2019-05-16T07:49:30.437Z,6.33
2019-05-16T07:52:00.612Z,6.17
2019-05-16T07:54:30.828Z,7.37
2019-05-16T07:57:11.801Z,7.33
2019-05-16T07:59:30.264Z,6.27
2019-05-16T08:02:00.562Z,4.93
2019-05-16T08:04:30.431Z,5.40
2019-05-16T08:07:00.610Z,6.10
2019-05-16T08:09:30.633Z,4.23
2019-05-16T08:12:02.226Z,8.57
2019-05-16T08:14:30.811Z,6.17
2019-05-16T08:17:01.268Z,6.83
2019-05-16T08:19:30.756Z,7.20
2019-05-16T08:22:01.367Z,6.67
2019-05-16T08:24:30.986Z,6.27
2019-05-16T08:27:01.310Z,4.97
2019-05-16T08:29:31.724Z,5.30
2019-05-16T08:34:32.221Z,5.43
2019-05-16T08:37:02.132Z,5.83
2019-05-16T08:39:31.299Z,7.80
2019-05-16T08:44:32.406Z,6.53
2019-05-16T08:49:31.718Z,7.10
2019-05-16T08:50:09.653Z,5.60
2019-05-16T08:52:01.508Z,5.37
2019-05-16T08:54:31.939Z,5.83
2019-05-16T08:57:20.583Z,5.07
2019-05-16T08:59:33.953Z,5.73
2019-05-16T09:02:03.343Z,8.83
2019-05-16T09:04:33.810Z,6.70
2019-05-16T09:07:02.700Z,7.33
2019-05-16T09:09:42.288Z,6.40
2019-05-16T09:10:21.223Z,5.67
2019-05-16T09:10:41.639Z,6.83
2019-05-16T09:12:01.987Z,6.93
2019-05-16T09:14:35.260Z,7.03
2019-05-16T09:17:01.168Z,9.17
2019-05-16T09:19:29.611Z,6.40
2019-05-16T09:21:58.354Z,8.03
2019-05-16T09:24:27.304Z,8.00
2019-05-16T09:26:57.845Z,7.30
2019-05-16T09:29:27.254Z,8.37
2019-05-16T09:32:08.841Z,7.70
2019-05-16T09:34:28.331Z,7.17
2019-05-16T09:37:00.839Z,7.50
2019-05-16T09:39:28.111Z,7.83
2019-05-16T09:41:58.778Z,7.77
2019-05-16T09:44:47.377Z,7.60
2019-05-16T09:47:17.508Z,8.33
2019-05-16T09:49:47.499Z,8.37
2019-05-16T09:52:17.197Z,8.13
2019-05-16T09:54:46.835Z,7.90
2019-05-16T09:57:17.537Z,8.47
2019-05-16T09:59:46.567Z,10.53
2019-05-16T10:02:17.582Z,7.57
2019-05-16T10:04:47.441Z,8.90
2019-05-16T10:07:17.810Z,8.53
2019-05-16T10:09:50.082Z,7.20
2019-05-16T10:12:18.638Z,7.70
2019-05-16T10:14:47.577Z,6.50
2019-05-16T10:17:17.742Z,6.33
2019-05-16T10:19:47.505Z,6.73
2019-05-16T10:22:17.067Z,6.13
2019-05-16T10:24:46.812Z,7.33
2019-05-16T10:27:17.191Z,6.80
2019-05-16T10:29:48.477Z,6.77
2019-05-16T10:32:16.795Z,7.23
2019-05-16T10:34:46.739Z,7.57
2019-05-16T10:37:26.920Z,7.40
2019-05-16T10:39:56.665Z,7.17
2019-05-16T10:42:29.025Z,6.73
2019-05-16T10:44:57.715Z,6.67
2019-05-16T10:47:30.655Z,6.33
2019-05-16T10:49:57.066Z,7.83
2019-05-16T10:52:27.140Z,6.33
2019-05-16T10:55:01.433Z,5.70
2019-05-16T10:57:29.378Z,5.80
2019-05-16T11:00:09.190Z,6.30
2019-05-16T11:02:31.405Z,6.50
2019-05-16T11:05:14.437Z,6.10
2019-05-16T11:07:31.187Z,7.60
2019-05-16T11:10:03.524Z,9.67
2019-05-16T11:12:46.037Z,6.17
2019-05-16T11:15:01.056Z,7.77
2019-05-16T11:17:29.681Z,8.43
2019-05-16T11:19:58.287Z,7.53
2019-05-16T11:22:29.714Z,9.17
2019-05-16T11:24:57.348Z,6.70
2019-05-16T11:27:25.890Z,7.10
2019-05-16T11:29:56.527Z,6.90
2019-05-16T11:32:26.950Z,6.57
2019-05-16T11:35:00.228Z,6.70
2019-05-16T11:37:29.043Z,6.30
2019-05-16T11:39:57.877Z,10.17
2019-05-16T11:42:27.976Z,6.83
2019-05-16T11:44:58.062Z,7.83
2019-05-16T11:47:27.299Z,9.00
2019-05-16T11:49:57.038Z,7.37
2019-05-16T11:52:25.937Z,8.37
2019-05-16T11:54:57.065Z,6.57
2019-05-16T11:57:25.244Z,7.00
2019-05-16T11:59:56.819Z,6.53
2019-05-16T12:02:27.902Z,7.93
2019-05-16T12:04:57.881Z,7.60
2019-05-16T12:07:33.911Z,6.30
2019-05-16T12:09:56.508Z,6.43
2019-05-16T12:12:27.189Z,6.47
2019-05-16T12:14:58.271Z,6.10
2019-05-16T12:17:28.008Z,7.40
2019-05-16T12:19:57.465Z,8.77
2019-05-16T12:22:26.851Z,6.20
2019-05-16T12:24:57.460Z,6.90
2019-05-16T12:27:32.860Z,7.73
2019-05-16T12:29:58.969Z,6.07
2019-05-16T12:32:27.663Z,9.33
2019-05-16T12:34:56.874Z,7.77
2019-05-16T12:37:27.587Z,7.10
2019-05-16T12:39:57.427Z,6.40
2019-05-16T12:42:27.089Z,7.40
2019-05-16T12:44:56.329Z,7.93
2019-05-16T12:47:25.083Z,7.67
2019-05-16T12:49:53.795Z,9.97
2019-05-16T12:52:22.406Z,5.57
2019-05-16T12:54:51.174Z,6.93
2019-05-16T12:57:26.663Z,6.90
2019-05-16T12:59:52.638Z,6.50
2019-05-16T13:02:21.880Z,6.00
2019-05-16T13:04:50.733Z,8.03
2019-05-16T13:07:19.281Z,7.27
2019-05-16T13:09:50.242Z,8.23
2019-05-16T13:12:18.320Z,6.93
2019-05-16T13:14:46.975Z,7.10
2019-05-16T13:17:16.693Z,7.03
2019-05-16T13:19:48.156Z,7.23
2019-05-16T13:22:16.685Z,6.30
2019-05-16T13:24:47.703Z,6.33
2019-05-16T13:27:22.612Z,5.10
2019-05-16T13:29:47.670Z,6.07
2019-05-16T13:32:17.303Z,6.30
2019-05-16T13:34:46.134Z,5.20
2019-05-16T13:37:17.925Z,7.23
2019-05-16T13:39:47.587Z,5.37
2019-05-16T13:42:16.828Z,5.67
2019-05-16T13:44:47.133Z,5.90
2019-05-16T13:47:17.350Z,6.07
2019-05-16T13:49:46.034Z,7.40
2019-05-16T13:52:16.670Z,6.93
2019-05-16T13:54:45.380Z,5.67
2019-05-16T13:57:14.190Z,8.77
2019-05-16T13:59:43.096Z,7.30
2019-05-16T14:02:12.016Z,7.00
2019-05-16T14:04:40.577Z,6.97
2019-05-16T14:07:09.230Z,9.70
2019-05-16T14:09:38.038Z,5.97
2019-05-16T14:12:06.808Z,6.20
2019-05-16T14:14:41.486Z,7.83
2019-05-16T14:17:13.775Z,7.97
2019-05-16T14:19:37.847Z,7.67
2019-05-16T14:22:07.637Z,5.53
2019-05-16T14:24:37.189Z,6.37
2019-05-16T14:27:06.692Z,7.07
2019-05-16T14:29:37.773Z,6.67
2019-05-16T14:32:09.992Z,6.93
2019-05-16T14:34:38.475Z,6.27
2019-05-16T14:37:26.818Z,6.57
2019-05-16T14:40:00.883Z,8.20
2019-05-16T14:42:28.059Z,7.20
2019-05-16T14:45:06.591Z,8.23
2019-05-16T14:47:27.500Z,6.70
2019-05-16T14:49:56.648Z,4.83
2019-05-16T14:52:27.130Z,5.53
2019-05-16T14:55:07.442Z,5.53
2019-05-16T14:57:42.377Z,6.30
2019-05-16T15:00:12.139Z,5.20
2019-05-16T15:02:40.793Z,9.40
2019-05-16T15:05:10.135Z,6.20
2019-05-16T15:07:43.191Z,7.20
2019-05-16T15:10:12.524Z,5.27
2019-05-16T15:12:41.388Z,5.10
2019-05-16T15:15:23.518Z,4.50
2019-05-16T15:17:52.047Z,5.20
2019-05-16T15:20:20.881Z,4.23
2019-05-16T15:22:52.535Z,6.40
2019-05-16T15:25:26.561Z,4.07
2019-05-16T15:28:01.909Z,3.80
2019-05-16T15:30:30.581Z,6.60
2019-05-16T15:33:03.884Z,4.80
2019-05-16T15:35:32.510Z,7.50
2019-05-16T15:38:07.495Z,6.27
2019-05-16T15:40:37.400Z,5.73
2019-05-16T15:43:10.924Z,5.33
2019-05-16T15:45:44.242Z,3.30
2019-05-16T15:48:17.269Z,4.00
2019-05-16T15:50:46.324Z,3.60
2019-05-16T15:53:17.490Z,3.20
2019-05-16T15:55:47.244Z,5.67
2019-05-16T15:58:18.006Z,9.73
2019-05-16T16:00:48.738Z,13.33
2019-05-16T16:03:17.798Z,9.07
2019-05-16T16:05:46.631Z,4.63
2019-05-16T16:08:18.117Z,5.20
2019-05-16T16:10:48.121Z,4.20
2019-05-16T16:13:19.862Z,4.30
2019-05-16T16:15:53.263Z,3.77
2019-05-16T16:18:21.594Z,5.77
2019-05-16T16:20:48.250Z,4.87
2019-05-16T16:23:17.724Z,5.60
2019-05-16T16:25:50.351Z,4.90
2019-05-16T16:28:17.890Z,10.50
2019-05-16T16:30:47.914Z,6.30
2019-05-16T16:33:26.047Z,5.17
2019-05-16T16:35:53.377Z,5.97
2019-05-16T16:38:47.620Z,4.53
2019-05-16T16:41:21.582Z,6.13
2019-05-16T16:43:50.581Z,4.17
2019-05-16T16:46:24.173Z,4.50
2019-05-16T16:48:56.743Z,4.80
2019-05-16T16:51:29.603Z,5.37
2019-05-16T16:53:58.364Z,5.53
2019-05-16T16:56:27.435Z,3.67
2019-05-16T16:58:56.279Z,3.37
2019-05-16T17:01:27.251Z,4.83
2019-05-16T17:03:57.414Z,5.30
2019-05-16T17:06:27.090Z,4.70
2019-05-16T17:08:56.831Z,5.90
2019-05-16T17:11:26.503Z,6.83
2019-05-16T17:13:56.551Z,6.80
2019-05-16T17:16:28.928Z,6.80
2019-05-16T17:18:56.874Z,5.20
2019-05-16T17:21:25.640Z,5.03
2019-05-16T17:23:54.240Z,6.30
2019-05-16T17:26:22.968Z,6.50
2019-05-16T17:28:51.611Z,4.70
2019-05-16T17:31:20.831Z,4.80
2019-05-16T17:33:49.472Z,4.40
2019-05-16T17:36:18.255Z,4.87
2019-05-16T17:38:57.137Z,2.73
2019-05-16T17:41:27.297Z,5.33
2019-05-16T17:43:56.623Z,3.20
2019-05-16T17:46:34.835Z,3.70
2019-05-16T17:48:57.219Z,4.83
2019-05-16T17:51:26.249Z,4.17
2019-05-16T17:53:57.646Z,4.23
2019-05-16T17:56:26.574Z,4.63
2019-05-16T17:58:56.906Z,6.00
2019-05-16T18:01:27.444Z,3.37
2019-05-16T18:03:57.239Z,6.63
2019-05-16T18:06:27.410Z,8.77
2019-05-16T18:08:57.130Z,3.77
2019-05-16T18:11:26.734Z,3.80
2019-05-16T18:13:57.069Z,3.63
2019-05-16T18:16:25.882Z,4.00
2019-05-16T18:18:54.370Z,3.30
2019-05-16T18:21:23.447Z,6.73
2019-05-16T18:23:51.862Z,3.50
2019-05-16T18:26:20.670Z,3.30
2019-05-16T18:28:49.293Z,3.40
2019-05-16T18:31:17.917Z,4.20
2019-05-16T18:33:46.853Z,3.60
2019-05-16T18:36:16.955Z,5.90
2019-05-16T18:38:46.612Z,5.07
2019-05-16T18:41:16.605Z,4.10
2019-05-16T18:43:47.189Z,4.07
2019-05-16T18:46:16.327Z,3.80
2019-05-16T18:48:47.218Z,4.53
2019-05-16T18:51:15.779Z,5.27
2019-05-16T18:53:46.397Z,6.03
2019-05-16T18:56:16.846Z,4.90
2019-05-16T18:58:46.668Z,15.53
2019-05-16T19:01:17.594Z,14.30
2019-05-16T19:03:46.465Z,21.47
2019-05-16T19:06:17.078Z,20.17
2019-05-16T19:08:46.045Z,35.93
2019-05-16T19:11:17.382Z,24.03
2019-05-16T19:13:47.436Z,18.80
2019-05-16T19:16:16.949Z,6.40
2019-05-16T19:18:46.078Z,5.60
2019-05-16T19:21:18.484Z,5.10
2019-05-16T19:23:47.266Z,4.63
2019-05-16T19:26:16.679Z,4.90
2019-05-16T19:28:46.743Z,5.33
2019-05-16T19:31:17.163Z,4.30
2019-05-16T19:33:48.874Z,4.30
2019-05-16T19:36:17.359Z,4.13
2019-05-16T19:38:46.618Z,4.57
2019-05-16T19:41:15.726Z,4.13
2019-05-16T19:43:46.520Z,4.23
2019-05-16T19:46:15.000Z,4.27
2019-05-16T19:48:46.323Z,5.90
2019-05-16T19:51:16.307Z,4.60
2019-05-16T19:53:47.098Z,5.43
2019-05-16T19:56:17.683Z,4.67
2019-05-16T19:58:46.769Z,4.87
2019-05-16T20:01:16.828Z,4.30
2019-05-16T20:03:47.098Z,4.90
2019-05-16T20:06:19.434Z,4.27
2019-05-16T20:08:48.171Z,4.70
2019-05-16T20:11:16.968Z,4.60
2019-05-16T20:13:47.412Z,5.17
2019-05-16T20:16:18.300Z,5.33
2019-05-16T20:18:46.866Z,5.17
2019-05-16T20:21:21.088Z,4.33
2019-05-16T20:23:49.604Z,4.80
2019-05-16T20:26:21.901Z,6.20
2019-05-16T20:28:50.520Z,4.70
2019-05-16T20:31:19.115Z,6.93
2019-05-16T20:33:47.831Z,7.77
2019-05-16T20:36:17.383Z,7.43
2019-05-16T20:38:46.629Z,7.37
2019-05-16T20:41:17.091Z,9.63
2019-05-16T20:43:47.469Z,8.97
2019-05-16T20:46:16.888Z,10.13
2019-05-16T20:48:45.901Z,9.30
2019-05-16T20:51:16.491Z,9.13
2019-05-16T20:53:49.394Z,7.50
2019-05-16T20:56:17.124Z,10.97
2019-05-16T20:58:46.704Z,9.13
2019-05-16T21:01:17.321Z,9.20
2019-05-16T21:03:46.782Z,7.63
2019-05-16T21:06:17.070Z,7.63
2019-05-16T21:08:46.265Z,8.97
2019-05-16T21:11:17.158Z,6.60
2019-05-16T21:13:46.913Z,6.43
2019-05-16T21:16:17.436Z,6.20
2019-05-16T21:18:46.975Z,7.10
2019-05-16T21:21:16.673Z,6.73
2019-05-16T21:23:46.977Z,6.90
2019-05-16T21:26:15.760Z,6.93
2019-05-16T21:28:46.290Z,10.77
2019-05-16T21:31:16.428Z,14.43
2019-05-16T21:33:47.090Z,24.23
2019-05-16T21:36:16.045Z,25.43
2019-05-16T21:38:46.911Z,10.47
2019-05-16T21:41:16.790Z,8.80
2019-05-16T21:43:46.964Z,7.10
2019-05-16T21:46:17.095Z,7.10
2019-05-16T21:48:47.317Z,7.10
2019-05-16T21:51:19.390Z,9.83
2019-05-16T21:53:47.200Z,7.50
2019-05-16T21:56:17.666Z,7.80
2019-05-16T21:58:47.378Z,7.70
2019-05-16T22:01:20.791Z,7.47
2019-05-16T22:03:49.596Z,7.70
2019-05-16T22:06:18.521Z,8.83
2019-05-16T22:08:47.306Z,8.03
2019-05-16T22:11:17.217Z,9.23
2019-05-16T22:13:47.927Z,9.53
2019-05-16T22:16:17.566Z,9.00
2019-05-16T22:18:47.413Z,8.87
2019-05-16T22:21:16.748Z,8.87
2019-05-16T22:23:46.486Z,7.40
2019-05-16T22:26:16.863Z,9.13
2019-05-16T22:28:46.641Z,8.57
2019-05-16T22:31:16.644Z,7.10
2019-05-16T22:33:46.889Z,6.73
2019-05-16T22:36:17.299Z,6.43
2019-05-16T22:38:46.366Z,6.17
2019-05-16T22:41:17.264Z,5.73
2019-05-16T22:43:46.839Z,5.00
2019-05-16T22:46:17.715Z,5.07
2019-05-16T22:48:46.821Z,5.47
2019-05-16T22:51:16.482Z,6.07
2019-05-16T22:53:45.392Z,5.20
2019-05-16T22:56:13.957Z,5.30
2019-05-16T22:58:42.661Z,5.13
2019-05-16T23:01:11.380Z,5.07
2019-05-16T23:03:39.793Z,4.97
2019-05-16T23:06:08.405Z,5.70
2019-05-16T23:08:36.978Z,7.57
2019-05-16T23:11:07.383Z,9.33
2019-05-16T23:13:36.150Z,8.57
2019-05-16T23:16:06.742Z,7.37
2019-05-16T23:18:37.276Z,7.17
2019-05-16T23:21:06.354Z,8.97
2019-05-16T23:23:37.278Z,9.37
2019-05-16T23:26:06.401Z,8.77
2019-05-16T23:28:36.760Z,9.07
2019-05-16T23:31:05.971Z,9.20
2019-05-16T23:33:36.611Z,9.43
2019-05-16T23:36:07.036Z,9.20
2019-05-16T23:38:36.823Z,8.80
2019-05-16T23:41:06.630Z,9.07
2019-05-16T23:43:37.295Z,9.17
2019-05-16T23:46:07.064Z,9.50
2019-05-16T23:48:36.519Z,9.70
2019-05-16T23:51:07.647Z,9.13
2019-05-16T23:53:37.133Z,10.60
2019-05-16T23:56:07.486Z,10.47
2019-05-16T23:58:36.976Z,9.63
